Time;durP1;ratioP1;P1;durP2;ratioP2;P2;SDS_P1;SDS_P2;PMS_P1;PMS_P2;Temp;Humidity;BMP_temperature;BMP_pressure;BME280_temperature;BME280_humidity;BME280_pressure;Samples;Min_cycle;Max_cycle;Signal;HPM_P1;HPM_P2
2022/01/07 00:01:14;;;;;;;14.50;4.83;;;0.00;99.90;;;;;;5093998;28;20356;-81
2022/01/07 00:03:59;;;;;;;9.80;5.93;;;-0.10;99.90;;;;;;5090788;28;20368;-79
2022/01/07 00:06:43;;;;;;;7.40;3.87;;;0.00;99.90;;;;;;5071903;28;20382;-82
2022/01/07 00:09:28;;;;;;;7.63;6.90;;;0.00;99.90;;;;;;5084442;28;20477;-79
2022/01/07 00:12:13;;;;;;;6.77;4.20;;;0.00;99.90;;;;;;5084180;28;20746;-80
2022/01/07 00:14:57;;;;;;;9.47;7.00;;;0.10;99.90;;;;;;5068624;28;20364;-81
2022/01/07 00:17:43;;;;;;;13.23;5.50;;;0.00;99.90;;;;;;5084057;28;20448;-81
2022/01/07 00:20:28;;;;;;;9.37;7.43;;;-0.10;99.90;;;;;;5068383;28;20383;-81
2022/01/07 00:23:12;;;;;;;11.80;5.83;;;0.10;99.90;;;;;;5083425;28;20392;-82
2022/01/07 00:25:57;;;;;;;6.40;3.87;;;0.00;99.90;;;;;;5084125;28;20958;-82
2022/01/07 00:28:42;;;;;;;8.23;5.83;;;-0.10;99.90;;;;;;5068454;28;20378;-80
2022/01/07 00:31:26;;;;;;;7.40;4.87;;;-0.10;99.90;;;;;;5084192;28;20408;-81
2022/01/07 00:34:11;;;;;;;5.63;5.07;;;-0.20;99.90;;;;;;5084347;28;20385;-80
2022/01/07 00:36:56;;;;;;;6.37;5.77;;;-0.10;99.90;;;;;;5084363;28;20455;-81
2022/01/07 00:39:40;;;;;;;11.43;7.57;;;0.00;99.90;;;;;;5083915;28;20360;-82
2022/01/07 00:42:25;;;;;;;7.53;6.67;;;0.10;99.90;;;;;;5083566;28;20377;-80
2022/01/07 00:45:10;;;;;;;11.17;5.23;;;0.10;99.90;;;;;;5082723;28;20415;-81
2022/01/07 00:47:55;;;;;;;12.13;7.53;;;0.10;99.90;;;;;;5085076;28;20431;-81
2022/01/07 00:50:40;;;;;;;8.57;5.90;;;0.10;99.90;;;;;;5086144;28;20371;-81
2022/01/07 00:53:24;;;;;;;15.10;6.57;;;0.20;99.90;;;;;;5070164;28;20392;-82
2022/01/07 00:56:09;;;;;;;6.33;4.40;;;0.20;99.90;;;;;;5088026;28;20467;-81
2022/01/07 00:58:54;;;;;;;9.03;6.63;;;0.40;99.90;;;;;;5087662;28;20393;-82
2022/01/07 01:01:38;;;;;;;9.27;5.40;;;0.50;99.90;;;;;;5096093;28;20433;-82
2022/01/07 01:04:23;;;;;;;10.30;6.33;;;0.30;99.90;;;;;;5096218;28;20399;-82
2022/01/07 01:07:08;;;;;;;8.20;5.80;;;0.20;99.90;;;;;;5095490;28;20427;-82
2022/01/07 01:09:53;;;;;;;7.43;5.83;;;0.00;99.90;;;;;;5096128;28;20382;-82
2022/01/07 01:12:40;;;;;;;11.40;4.00;;;-0.10;99.90;;;;;;5096330;28;20358;-81
2022/01/07 01:15:26;;;;;;;15.97;6.80;;;0.00;99.90;;;;;;5095215;28;20403;-82
2022/01/07 01:18:11;;;;;;;6.53;4.77;;;0.20;99.90;;;;;;5093346;28;20396;-82
2022/01/07 01:20:56;;;;;;;18.60;7.40;;;0.10;99.90;;;;;;5087940;28;20356;-81
2022/01/07 01:23:44;;;;;;;8.73;5.07;;;0.20;99.90;;;;;;5088244;28;20396;-81
2022/01/07 01:26:29;;;;;;;7.67;6.30;;;0.30;99.90;;;;;;5088359;28;20421;-82
2022/01/07 01:29:13;;;;;;;7.07;5.23;;;0.30;99.90;;;;;;5087998;28;20357;-82
2022/01/07 01:31:58;;;;;;;7.50;6.40;;;0.10;99.90;;;;;;5091112;28;20388;-82
2022/01/07 01:34:43;;;;;;;10.00;4.67;;;0.00;99.90;;;;;;5093641;28;20377;-82
2022/01/07 01:37:29;;;;;;;12.27;5.73;;;0.30;99.90;;;;;;5088997;28;20427;-82
2022/01/07 01:40:15;;;;;;;13.03;6.93;;;0.40;99.90;;;;;;5090925;28;20387;-82
2022/01/07 01:43:01;;;;;;;8.13;4.23;;;0.20;99.90;;;;;;5090770;28;20359;-82
2022/01/07 01:45:45;;;;;;;5.53;4.97;;;0.20;99.90;;;;;;5095326;28;20381;-82
2022/01/07 01:48:32;;;;;;;20.10;6.50;;;0.20;99.90;;;;;;5093552;28;20423;-82
2022/01/07 01:51:16;;;;;;;11.87;6.33;;;0.30;99.90;;;;;;5092621;28;20360;-82
2022/01/07 01:54:02;;;;;;;8.70;5.97;;;0.40;99.90;;;;;;5094886;28;20393;-82
2022/01/07 01:56:47;;;;;;;7.50;5.07;;;0.40;99.90;;;;;;5094915;28;20468;-82
2022/01/07 01:59:32;;;;;;;8.80;5.63;;;0.50;99.90;;;;;;5092810;28;20404;-82
2022/01/07 02:02:17;;;;;;;7.03;6.17;;;0.20;99.90;;;;;;5092544;28;20427;-82
2022/01/07 02:05:02;;;;;;;6.00;4.30;;;0.30;99.90;;;;;;5078805;28;20363;-82
2022/01/07 02:07:47;;;;;;;10.60;4.70;;;0.20;99.90;;;;;;5096001;28;20385;-81
2022/01/07 02:10:31;;;;;;;5.90;5.40;;;0.00;99.90;;;;;;5096564;28;20371;-81
2022/01/07 02:13:17;;;;;;;6.63;6.03;;;0.00;99.90;;;;;;5099374;28;20347;-81
2022/01/07 02:16:02;;;;;;;6.30;4.10;;;0.10;99.90;;;;;;5097189;28;20440;-81
2022/01/07 02:18:46;;;;;;;12.23;6.40;;;0.30;99.90;;;;;;5097446;28;20359;-81
2022/01/07 02:21:36;;;;;;;7.47;4.83;;;0.30;99.90;;;;;;5097736;28;20476;-81
2022/01/07 02:24:21;;;;;;;5.60;5.10;;;0.30;99.90;;;;;;5097886;28;20376;-81
2022/01/07 02:27:07;;;;;;;8.47;4.80;;;0.30;99.90;;;;;;5081375;28;20368;-81
2022/01/07 02:29:52;;;;;;;12.97;5.60;;;0.30;99.90;;;;;;5080088;28;20355;-82
2022/01/07 02:32:37;;;;;;;9.10;5.30;;;0.30;99.90;;;;;;5092181;28;20372;-81
2022/01/07 02:35:24;;;;;;;6.57;5.40;;;0.30;99.90;;;;;;5093642;28;20391;-82
2022/01/07 02:38:09;;;;;;;7.00;4.60;;;0.40;99.90;;;;;;5093763;28;20400;-81
2022/01/07 02:40:54;;;;;;;5.50;5.00;;;0.50;99.90;;;;;;5094399;28;20427;-81
2022/01/07 02:43:38;;;;;;;6.93;4.93;;;0.70;99.90;;;;;;5094206;28;20448;-82
2022/01/07 02:46:23;;;;;;;9.77;6.60;;;0.40;99.90;;;;;;5087964;28;20356;-82
2022/01/07 02:49:10;;;;;;;16.17;4.40;;;0.30;99.90;;;;;;5085885;28;20373;-81
2022/01/07 02:51:55;;;;;;;4.30;3.90;;;0.30;99.90;;;;;;5086071;28;20352;-81
2022/01/07 02:54:39;;;;;;;6.77;4.17;;;0.50;99.90;;;;;;5086302;28;20441;-82
2022/01/07 02:57:24;;;;;;;9.10;6.10;;;0.40;99.90;;;;;;5055985;28;20476;-82
2022/01/07 03:00:10;;;;;;;7.33;6.13;;;0.30;99.90;;;;;;5086431;28;20418;-81
2022/01/07 03:02:57;;;;;;;13.33;5.90;;;0.20;99.90;;;;;;5086025;28;20356;-81
2022/01/07 03:05:42;;;;;;;10.30;5.47;;;0.30;99.90;;;;;;5086436;28;20381;-80
2022/01/07 03:08:27;;;;;;;6.97;5.27;;;0.40;99.90;;;;;;5085787;28;20371;-82
2022/01/07 03:11:12;;;;;;;8.10;6.13;;;0.30;99.90;;;;;;5086310;28;20385;-82
2022/01/07 03:13:57;;;;;;;11.20;5.30;;;0.30;99.90;;;;;;5091033;28;20387;-81
2022/01/07 03:16:41;;;;;;;5.03;4.50;;;0.20;99.90;;;;;;5084703;28;20453;-81
2022/01/07 03:19:27;;;;;;;9.13;4.30;;;0.30;99.90;;;;;;5085757;28;20383;-81
2022/01/07 03:22:11;;;;;;;9.13;4.03;;;0.30;99.90;;;;;;5085150;28;20485;-81
2022/01/07 03:24:56;;;;;;;6.87;5.70;;;0.40;99.90;;;;;;5086329;28;20828;-82
2022/01/07 03:27:41;;;;;;;7.73;6.07;;;0.30;99.90;;;;;;5085576;28;20389;-81
2022/01/07 03:30:26;;;;;;;10.50;5.07;;;0.20;99.90;;;;;;5085821;28;20393;-81
2022/01/07 03:33:11;;;;;;;8.20;4.20;;;0.00;99.90;;;;;;5085035;28;20418;-81
2022/01/07 03:35:56;;;;;;;4.97;4.57;;;-0.30;99.90;;;;;;5085435;28;20735;-81
2022/01/07 03:38:41;;;;;;;5.00;4.50;;;-0.20;99.90;;;;;;5085258;28;20364;-80
2022/01/07 03:41:27;;;;;;;4.77;4.13;;;-0.10;99.90;;;;;;5086299;28;20371;-81
2022/01/07 03:44:11;;;;;;;20.83;5.43;;;-0.20;99.90;;;;;;5085642;28;20359;-80
2022/01/07 03:46:56;;;;;;;5.43;4.93;;;-0.20;99.90;;;;;;5086082;28;20808;-81
2022/01/07 03:49:40;;;;;;;5.13;4.60;;;-0.10;99.90;;;;;;5085996;28;20389;-81
2022/01/07 03:52:25;;;;;;;6.83;4.97;;;-0.20;99.90;;;;;;5070447;28;20743;-81
2022/01/07 03:55:13;;;;;;;8.17;5.20;;;-0.10;99.90;;;;;;5085145;28;20372;-81
2022/01/07 03:57:59;;;;;;;9.93;7.10;;;-0.10;99.90;;;;;;5085549;28;20411;-81
2022/01/07 04:00:43;;;;;;;15.57;5.90;;;-0.20;99.90;;;;;;5085353;28;20381;-81
2022/01/07 04:03:29;;;;;;;7.40;5.03;;;-0.40;99.90;;;;;;5084812;28;20890;-81
2022/01/07 04:06:17;;;;;;;10.50;3.97;;;-0.30;99.90;;;;;;5084542;28;20474;-81
2022/01/07 04:09:02;;;;;;;12.13;6.33;;;-0.20;99.90;;;;;;5085306;28;20399;-81
2022/01/07 04:11:47;;;;;;;5.13;4.33;;;0.00;99.90;;;;;;5084970;28;20413;-81
2022/01/07 04:14:31;;;;;;;7.23;6.57;;;0.00;99.90;;;;;;5084901;28;20827;-81
2022/01/07 04:17:16;;;;;;;4.17;3.77;;;-0.20;99.90;;;;;;5085036;28;20440;-81
2022/01/07 04:20:00;;;;;;;5.30;4.87;;;-0.20;99.90;;;;;;5084733;28;20352;-81
2022/01/07 04:22:46;;;;;;;7.33;5.30;;;-0.40;99.90;;;;;;5084802;28;20431;-80
2022/01/07 04:25:31;;;;;;;5.47;4.30;;;-0.30;99.90;;;;;;5085211;28;20461;-81
2022/01/07 04:28:16;;;;;;;12.53;7.10;;;-0.40;99.90;;;;;;5085509;28;20415;-80
2022/01/07 04:31:01;;;;;;;12.57;6.93;;;-0.40;99.90;;;;;;5088760;28;20801;-81
2022/01/07 04:33:46;;;;;;;4.43;4.07;;;-0.50;99.90;;;;;;5089350;28;20495;-81
2022/01/07 04:36:32;;;;;;;6.23;4.90;;;-0.40;99.90;;;;;;5089373;28;20445;-80
2022/01/07 04:39:16;;;;;;;6.50;4.00;;;-0.40;99.90;;;;;;5097353;28;20379;-81
2022/01/07 04:42:01;;;;;;;7.80;4.80;;;-0.40;99.90;;;;;;5097861;28;20425;-81
2022/01/07 04:44:47;;;;;;;6.23;5.50;;;-0.30;99.90;;;;;;5096239;28;20414;-81
2022/01/07 04:47:34;;;;;;;7.40;3.30;;;-0.30;99.90;;;;;;5091566;28;20860;-81
2022/01/07 04:50:22;;;;;;;12.83;4.40;;;-0.30;99.90;;;;;;5093830;28;20500;-81
2022/01/07 04:53:07;;;;;;;11.23;4.73;;;-0.40;99.90;;;;;;5094196;28;20355;-82
2022/01/07 04:55:53;;;;;;;5.40;4.27;;;-0.50;99.90;;;;;;5095595;28;20400;-81
2022/01/07 04:58:37;;;;;;;3.67;3.33;;;-0.50;99.90;;;;;;5090902;28;20380;-81
2022/01/07 05:01:22;;;;;;;17.53;4.73;;;-0.40;99.90;;;;;;5088859;28;20391;-81
2022/01/07 05:04:06;;;;;;;6.30;4.33;;;-0.40;99.90;;;;;;5088997;28;20372;-80
2022/01/07 05:06:52;;;;;;;6.90;5.40;;;-0.40;99.90;;;;;;5088580;28;20721;-81
2022/01/07 05:09:37;;;;;;;6.30;3.10;;;-0.60;99.90;;;;;;5073636;28;20371;-81
2022/01/07 05:12:21;;;;;;;8.20;4.50;;;-0.50;99.90;;;;;;5089168;28;20378;-80
2022/01/07 05:15:06;;;;;;;8.00;6.00;;;-0.40;99.90;;;;;;5072370;28;20387;-81
2022/01/07 05:17:52;;;;;;;4.57;4.17;;;-0.30;99.90;;;;;;5088465;28;20458;-80
2022/01/07 05:20:36;;;;;;;9.40;5.90;;;-0.30;99.90;;;;;;5088438;28;20424;-80
2022/01/07 05:23:21;;;;;;;4.97;4.50;;;-0.40;99.90;;;;;;5092500;28;20406;-79
2022/01/07 05:26:07;;;;;;;6.00;2.33;;;-0.40;99.90;;;;;;5098620;28;20412;-78
2022/01/07 05:28:52;;;;;;;18.47;3.80;;;-0.30;99.90;;;;;;5099043;28;20444;-78
2022/01/07 05:31:37;;;;;;;7.17;5.17;;;-0.30;99.90;;;;;;5090768;28;20355;-80
2022/01/07 05:34:21;;;;;;;4.37;4.00;;;-0.10;99.90;;;;;;5073766;28;20362;-80
2022/01/07 05:37:07;;;;;;;5.30;4.67;;;0.00;99.90;;;;;;5071173;28;20466;-81
2022/01/07 05:39:51;;;;;;;10.53;5.77;;;0.20;99.90;;;;;;5086023;28;20412;-81
2022/01/07 05:42:36;;;;;;;9.00;4.07;;;0.20;99.90;;;;;;5086872;28;20737;-81
2022/01/07 05:45:20;;;;;;;4.63;4.00;;;0.10;99.90;;;;;;5086720;28;20386;-82
2022/01/07 05:48:05;;;;;;;5.60;4.67;;;0.10;99.90;;;;;;5085494;28;21030;-81
2022/01/07 05:50:50;;;;;;;5.83;4.90;;;0.00;99.90;;;;;;5085465;28;20478;-82
2022/01/07 05:53:36;;;;;;;5.97;3.33;;;0.00;99.90;;;;;;5070998;28;20410;-82
2022/01/07 05:56:21;;;;;;;7.33;4.43;;;-0.10;99.90;;;;;;5086274;28;20475;-81
2022/01/07 05:59:06;;;;;;;4.57;4.17;;;0.00;99.90;;;;;;5087335;28;20405;-81
2022/01/07 06:01:50;;;;;;;14.47;6.37;;;0.00;99.90;;;;;;5086924;28;20751;-82
2022/01/07 06:04:35;;;;;;;13.60;6.53;;;0.10;99.90;;;;;;5086875;28;20407;-82
2022/01/07 06:07:20;;;;;;;10.33;6.10;;;0.20;99.90;;;;;;5089538;28;20396;-82
2022/01/07 06:10:06;;;;;;;8.10;3.77;;;0.40;99.90;;;;;;5085375;28;20363;-82
2022/01/07 06:12:51;;;;;;;11.90;4.20;;;0.20;99.90;;;;;;5070870;28;20414;-82
2022/01/07 06:15:36;;;;;;;8.07;7.40;;;0.30;99.90;;;;;;5085244;28;20395;-82
2022/01/07 06:18:21;;;;;;;8.83;4.80;;;0.30;99.90;;;;;;5070335;28;20407;-82
2022/01/07 06:21:05;;;;;;;5.20;4.63;;;0.30;99.90;;;;;;5074468;28;20874;-81
2022/01/07 06:23:50;;;;;;;11.73;6.40;;;0.40;99.90;;;;;;5068241;28;20450;-81
2022/01/07 06:26:35;;;;;;;7.90;5.60;;;0.50;99.90;;;;;;5084202;28;20443;-81
2022/01/07 06:29:20;;;;;;;17.13;5.47;;;0.40;99.90;;;;;;5084590;28;20377;-82
2022/01/07 06:32:05;;;;;;;6.53;5.93;;;0.20;99.90;;;;;;5084150;28;20459;-82
2022/01/07 06:34:50;;;;;;;7.50;4.40;;;0.10;99.90;;;;;;5084166;28;20381;-82
2022/01/07 06:37:36;;;;;;;6.23;4.80;;;0.10;99.90;;;;;;5068763;28;20947;-82
2022/01/07 06:40:21;;;;;;;6.03;4.50;;;-0.20;99.90;;;;;;5084326;28;20956;-80
2022/01/07 06:43:05;;;;;;;7.23;5.13;;;-0.20;99.90;;;;;;5068964;28;20356;-81
2022/01/07 06:45:50;;;;;;;8.73;3.87;;;-0.30;99.90;;;;;;5062171;28;20457;-82
2022/01/07 06:48:34;;;;;;;9.17;5.67;;;-0.30;99.90;;;;;;5064962;28;20415;-82
2022/01/07 06:51:19;;;;;;;5.40;4.27;;;-0.20;99.90;;;;;;5083901;28;20397;-80
2022/01/07 06:54:04;;;;;;;15.10;5.20;;;0.00;99.90;;;;;;5084011;28;20356;-81
2022/01/07 06:56:48;;;;;;;18.57;4.67;;;0.00;99.90;;;;;;5068083;28;20427;-81
2022/01/07 06:59:33;;;;;;;4.93;3.47;;;0.10;99.90;;;;;;5083421;28;20368;-80
2022/01/07 07:02:18;;;;;;;14.83;4.17;;;0.00;99.90;;;;;;5083922;28;20392;-81
2022/01/07 07:05:02;;;;;;;3.97;3.40;;;-0.10;99.90;;;;;;5067363;28;20418;-82
2022/01/07 07:07:47;;;;;;;6.93;3.83;;;-0.10;99.90;;;;;;5083028;28;20367;-82
2022/01/07 07:10:31;;;;;;;5.00;4.03;;;0.00;99.90;;;;;;5083408;28;20388;-82
2022/01/07 07:13:16;;;;;;;6.30;5.63;;;0.10;99.90;;;;;;5067285;28;20391;-81
2022/01/07 07:16:01;;;;;;;5.00;4.50;;;0.20;99.90;;;;;;5038889;28;20435;-82
2022/01/07 07:18:45;;;;;;;9.43;4.57;;;0.30;99.90;;;;;;5081956;28;20409;-81
2022/01/07 07:21:30;;;;;;;5.50;5.00;;;0.30;99.90;;;;;;5067499;28;20421;-82
2022/01/07 07:24:15;;;;;;;9.03;5.20;;;0.30;99.90;;;;;;5079375;28;20415;-81
2022/01/07 07:26:59;;;;;;;4.97;3.87;;;-0.10;99.90;;;;;;5062231;28;20413;-81
2022/01/07 07:29:44;;;;;;;5.27;4.20;;;-0.10;99.90;;;;;;5072643;28;20442;-82
2022/01/07 07:32:30;;;;;;;7.27;4.40;;;-0.10;99.90;;;;;;5082670;28;20409;-81
2022/01/07 07:36:26;;;;;;;4.47;4.13;;;-0.10;99.90;;;;;;5060507;28;20379;-82
2022/01/07 07:38:18;;;;;;;8.53;5.17;;;-0.10;99.90;;;;;;5093755;28;20425;-82
2022/01/07 07:41:06;;;;;;;4.10;3.27;;;-0.30;99.90;;;;;;5092203;28;20898;-82
2022/01/07 07:43:50;;;;;;;4.33;4.00;;;-0.40;99.90;;;;;;5070143;28;20356;-82
2022/01/07 07:46:37;;;;;;;4.70;3.80;;;-0.30;99.90;;;;;;5084165;28;20448;-82
2022/01/07 07:49:22;;;;;;;5.43;4.30;;;-0.40;99.90;;;;;;5084265;28;20860;-82
2022/01/07 07:52:06;;;;;;;6.10;4.20;;;-0.20;99.90;;;;;;5084378;28;20360;-82
2022/01/07 07:54:51;;;;;;;11.13;5.47;;;-0.30;99.90;;;;;;5062702;28;20426;-81
2022/01/07 07:57:35;;;;;;;7.07;4.50;;;-0.30;99.90;;;;;;5075962;28;20929;-81
2022/01/07 08:00:20;;;;;;;14.60;8.03;;;-0.30;99.90;;;;;;5075887;28;20395;-81
2022/01/07 08:03:04;;;;;;;6.80;4.77;;;-0.20;99.90;;;;;;5075812;28;20367;-82
2022/01/07 08:05:49;;;;;;;6.17;5.60;;;-0.20;99.90;;;;;;5060976;28;20432;-80
2022/01/07 08:08:34;;;;;;;8.90;4.27;;;-0.20;99.90;;;;;;5077264;28;20458;-79
2022/01/07 08:11:19;;;;;;;5.13;4.30;;;-0.10;99.90;;;;;;5069837;28;20430;-80
2022/01/07 08:17:07;;;;;;;5.70;5.13;;;-0.30;99.90;;;;;;5075203;28;20480;-77
2022/01/07 08:19:52;;;;;;;4.93;4.37;;;-0.30;99.90;;;;;;5047217;28;20369;-76
2022/01/07 08:22:36;;;;;;;9.77;5.73;;;-0.20;99.90;;;;;;5060634;28;20400;-78
2022/01/07 08:25:22;;;;;;;6.90;4.83;;;-0.30;99.90;;;;;;5056234;28;20918;-79
2022/01/07 08:28:06;;;;;;;10.17;5.07;;;-0.10;99.90;;;;;;5054629;28;20389;-80
2022/01/07 08:31:01;;;;;;;9.57;5.17;;;0.10;99.90;;;;;;5035227;28;20397;-79
2022/01/07 08:36:47;;;;;;;6.67;5.10;;;0.00;99.90;;;;;;5047363;28;20533;-79
2022/01/07 08:39:31;;;;;;;6.83;4.90;;;0.20;99.90;;;;;;5037467;28;20349;-79
2022/01/07 08:42:18;;;;;;;12.60;6.77;;;0.10;99.90;;;;;;5054710;28;20818;-80
2022/01/07 08:45:03;;;;;;;11.47;7.07;;;0.00;99.90;;;;;;5039768;28;20426;-81
2022/01/07 08:47:47;;;;;;;8.20;5.40;;;0.20;99.90;;;;;;5049574;28;20457;-79
2022/01/07 08:50:32;;;;;;;9.70;4.63;;;0.20;99.90;;;;;;5093640;28;20456;-79
2022/01/07 08:53:16;;;;;;;15.37;6.90;;;0.20;99.90;;;;;;5076211;28;20367;-82
2022/01/07 08:56:01;;;;;;;8.93;7.60;;;0.40;99.90;;;;;;5049080;28;20514;-80
2022/01/07 08:58:51;;;;;;;5.90;5.20;;;0.40;99.90;;;;;;5077176;28;20478;-79
2022/01/07 09:01:36;;;;;;;12.40;7.07;;;0.40;99.90;;;;;;5082669;28;20448;-79
2022/01/07 09:04:22;;;;;;;20.03;6.40;;;0.30;99.90;;;;;;5089028;28;20470;-80
2022/01/07 09:07:07;;;;;;;9.63;5.50;;;0.40;99.90;;;;;;5086076;28;20782;-79
2022/01/07 09:09:52;;;;;;;9.20;6.80;;;0.40;99.90;;;;;;5089809;28;20420;-80
2022/01/07 09:12:36;;;;;;;17.20;8.13;;;0.50;99.90;;;;;;5089094;28;20385;-80
2022/01/07 09:15:21;;;;;;;11.87;8.30;;;0.40;99.90;;;;;;5091284;28;20393;-80
2022/01/07 09:18:09;;;;;;;13.10;8.10;;;0.60;99.90;;;;;;5104487;28;20470;-79
2022/01/07 09:20:54;;;;;;;11.50;6.87;;;0.60;99.90;;;;;;5107867;28;20850;-79
2022/01/07 09:23:41;;;;;;;9.80;5.63;;;0.60;99.90;;;;;;5102016;28;20455;-80
2022/01/07 09:26:26;;;;;;;12.17;8.37;;;0.60;99.90;;;;;;5092037;28;20416;-81
2022/01/07 09:29:11;;;;;;;8.47;6.67;;;0.80;99.90;;;;;;5092652;28;20407;-81
2022/01/07 09:31:56;;;;;;;15.83;7.47;;;0.70;99.90;;;;;;5093538;28;20385;-81
2022/01/07 09:34:41;;;;;;;15.90;8.00;;;0.80;99.90;;;;;;5090594;28;20383;-80
2022/01/07 09:37:25;;;;;;;12.73;7.13;;;0.80;99.90;;;;;;5112244;28;20423;-81
2022/01/07 09:40:12;;;;;;;9.93;7.27;;;0.80;99.90;;;;;;5103297;28;20430;-81
2022/01/07 09:43:00;;;;;;;10.17;7.53;;;0.90;99.90;;;;;;5112779;28;20362;-79
2022/01/07 09:45:44;;;;;;;10.77;7.53;;;0.90;99.90;;;;;;5112347;28;20371;-80
2022/01/07 09:48:29;;;;;;;13.03;8.47;;;0.90;99.90;;;;;;5094952;28;20454;-80
2022/01/07 09:51:15;;;;;;;7.40;6.33;;;0.90;99.90;;;;;;5102524;28;20417;-80
2022/01/07 09:54:04;;;;;;;14.70;6.53;;;1.00;99.90;;;;;;5092478;28;20401;-80
2022/01/07 09:56:48;;;;;;;10.70;7.73;;;1.10;99.90;;;;;;5092769;28;20509;-80
2022/01/07 09:59:34;;;;;;;7.67;5.90;;;1.10;99.90;;;;;;5112858;28;20358;-81
2022/01/07 10:02:19;;;;;;;12.80;7.20;;;1.20;99.90;;;;;;5083210;28;20696;-80
2022/01/07 10:05:16;;;;;;;13.37;6.03;;;1.30;99.90;;;;;;5110646;28;20398;-79
2022/01/07 10:08:21;;;;;;;8.33;7.50;;;1.40;99.90;;;;;;5098490;28;20391;-80
2022/01/07 10:11:21;;;;;;;10.07;8.07;;;1.60;99.90;;;;;;5107368;28;20370;-79
2022/01/07 10:14:18;;;;;;;13.97;6.40;;;1.40;99.90;;;;;;5062377;28;20376;-79
2022/01/07 10:17:04;;;;;;;7.43;5.87;;;1.50;99.90;;;;;;5088622;28;20463;-78
2022/01/07 10:19:49;;;;;;;24.73;6.23;;;1.50;99.90;;;;;;5087739;28;20740;-79
2022/01/07 10:22:54;;;;;;;13.10;7.30;;;1.60;99.90;;;;;;5067085;28;20446;-79
2022/01/07 10:25:41;;;;;;;10.60;9.00;;;1.70;99.90;;;;;;5086972;28;20401;-79
2022/01/07 10:28:31;;;;;;;8.13;5.30;;;1.50;99.90;;;;;;5099434;28;20772;-80
2022/01/07 10:31:22;;;;;;;11.33;5.20;;;1.50;99.90;;;;;;5087982;28;20395;-80
2022/01/07 10:34:07;;;;;;;9.20;5.80;;;2.00;99.90;;;;;;5107465;28;20410;-79
2022/01/07 10:36:51;;;;;;;11.80;5.90;;;1.90;99.90;;;;;;5091392;28;20435;-79
2022/01/07 10:39:36;;;;;;;9.73;5.00;;;1.80;99.90;;;;;;5070709;28;20367;-79
2022/01/07 10:42:23;;;;;;;7.87;5.77;;;1.80;99.90;;;;;;5103166;28;20460;-79
2022/01/07 10:45:08;;;;;;;10.82;6.18;;;1.70;99.90;;;;;;5107033;28;20407;-79
2022/01/07 10:47:56;;;;;;;11.53;7.43;;;1.90;99.90;;;;;;5074871;28;20244;-79
2022/01/07 10:50:47;;;;;;;10.07;7.50;;;1.80;99.90;;;;;;5107652;28;20366;-80
2022/01/07 10:53:53;;;;;;;13.97;6.07;;;1.90;99.90;;;;;;5090112;28;20360;-82
2022/01/07 10:56:41;;;;;;;10.90;5.57;;;1.80;99.90;;;;;;5069792;28;20451;-80
2022/01/07 10:59:26;;;;;;;6.90;5.97;;;1.70;99.90;;;;;;5078892;28;20400;-81
2022/01/07 11:02:10;;;;;;;19.60;7.23;;;2.00;99.90;;;;;;5091594;28;20379;-81
2022/01/07 11:04:55;;;;;;;9.03;5.20;;;2.10;99.90;;;;;;5102978;28;20414;-81
2022/01/07 11:07:40;;;;;;;11.70;5.93;;;2.20;99.90;;;;;;5092971;28;20546;-79
2022/01/07 11:10:25;;;;;;;12.30;5.67;;;2.40;99.90;;;;;;5094990;28;20437;-80
2022/01/07 11:13:10;;;;;;;7.60;6.80;;;2.30;99.90;;;;;;5078719;28;20418;-81
2022/01/07 11:15:55;;;;;;;10.07;6.17;;;2.30;99.90;;;;;;5097205;28;20448;-79
2022/01/07 11:18:41;;;;;;;5.90;5.20;;;2.10;99.90;;;;;;5056570;28;20486;-79
2022/01/07 11:21:25;;;;;;;13.00;7.50;;;1.90;99.90;;;;;;5071093;28;20914;-80
2022/01/07 11:24:47;;;;;;;9.00;6.30;;;2.10;99.90;;;;;;5080995;28;20371;-80
2022/01/07 11:27:49;;;;;;;7.70;6.43;;;2.10;99.90;;;;;;5064921;28;20383;-80
2022/01/07 11:30:35;;;;;;;12.90;6.67;;;2.10;99.90;;;;;;5065612;28;20396;-80
2022/01/07 11:33:21;;;;;;;7.60;4.93;;;2.00;99.90;;;;;;5043675;28;20753;-80
2022/01/07 11:36:34;;;;;;;9.07;5.60;;;1.80;99.90;;;;;;5061463;28;20409;-80
2022/01/07 11:39:21;;;;;;;9.27;6.33;;;2.10;99.90;;;;;;5062918;28;20463;-81
2022/01/07 11:42:07;;;;;;;12.03;7.83;;;2.00;99.90;;;;;;5068528;28;20400;-80
2022/01/07 11:44:53;;;;;;;8.67;5.87;;;1.90;99.90;;;;;;5094780;28;20410;-81
2022/01/07 11:47:49;;;;;;;11.37;5.77;;;2.00;99.90;;;;;;5016166;28;20457;-81
2022/01/07 11:51:04;;;;;;;12.83;8.33;;;1.70;99.90;;;;;;5016322;28;20487;-81
2022/01/07 11:54:08;;;;;;;8.00;5.40;;;1.90;99.90;;;;;;5014891;28;20441;-80
2022/01/07 11:56:53;;;;;;;9.23;5.50;;;1.70;99.90;;;;;;5010524;28;20434;-78
2022/01/07 11:59:49;;;;;;;27.53;6.10;;;1.70;99.90;;;;;;5014960;28;20898;-79
2022/01/07 12:03:06;;;;;;;8.27;5.83;;;1.80;99.90;;;;;;5017162;28;20905;-79
2022/01/07 12:05:51;;;;;;;5.80;4.47;;;1.80;99.90;;;;;;4996642;28;20526;-80
2022/01/07 12:08:39;;;;;;;11.67;6.57;;;1.70;99.90;;;;;;5013075;28;21046;-80
2022/01/07 12:11:30;;;;;;;7.13;6.07;;;1.80;99.90;;;;;;5012319;28;20430;-77
2022/01/07 12:14:18;;;;;;;11.20;5.70;;;1.60;99.90;;;;;;4984460;28;20430;-81
2022/01/07 12:17:15;;;;;;;5.97;4.60;;;1.60;99.90;;;;;;5012474;28;20471;-78
2022/01/07 12:20:29;;;;;;;6.00;4.87;;;1.30;99.90;;;;;;5011518;28;20434;-79
2022/01/07 12:23:22;;;;;;;6.57;5.23;;;1.40;99.90;;;;;;5040630;28;20428;-79
2022/01/07 12:26:06;;;;;;;11.17;6.37;;;1.40;99.90;;;;;;5046629;28;20976;-79
2022/01/07 12:28:50;;;;;;;5.17;4.30;;;1.40;99.90;;;;;;5018852;28;20409;-78
2022/01/07 12:31:50;;;;;;;6.20;5.17;;;1.30;99.90;;;;;;5045279;28;20391;-79
2022/01/07 12:34:45;;;;;;;10.53;7.07;;;1.40;99.90;;;;;;5036590;28;20437;-79
2022/01/07 12:37:30;;;;;;;18.93;5.37;;;1.50;99.90;;;;;;5033164;28;20465;-78
2022/01/07 12:40:14;;;;;;;8.30;6.30;;;1.40;99.90;;;;;;5024746;28;20503;-78
2022/01/07 12:42:59;;;;;;;9.90;5.13;;;1.50;99.90;;;;;;5017704;28;20826;-80
2022/01/07 12:46:02;;;;;;;10.80;6.13;;;1.30;99.90;;;;;;4991399;28;20480;-78
2022/01/07 12:48:47;;;;;;;9.20;5.07;;;1.30;99.90;;;;;;5032043;28;20600;-78
2022/01/07 12:51:32;;;;;;;10.47;6.97;;;1.30;99.90;;;;;;5062317;28;20465;-79
2022/01/07 12:54:16;;;;;;;11.07;7.37;;;1.40;99.90;;;;;;5064022;28;20403;-79
2022/01/07 12:57:02;;;;;;;11.90;5.90;;;1.40;99.90;;;;;;5067328;28;20492;-80
2022/01/07 12:59:48;;;;;;;15.67;9.47;;;1.50;99.90;;;;;;5103691;28;20431;-83
2022/01/07 13:02:34;;;;;;;11.47;6.30;;;1.50;99.90;;;;;;5106478;28;20411;-82
2022/01/07 13:05:21;;;;;;;5.87;4.40;;;1.50;99.90;;;;;;5079610;28;20383;-81
2022/01/07 13:08:11;;;;;;;9.33;7.07;;;1.50;99.90;;;;;;5085455;28;20484;-82
2022/01/07 13:10:59;;;;;;;12.30;7.50;;;1.40;99.90;;;;;;5085958;28;20418;-81
2022/01/07 13:13:43;;;;;;;8.67;7.57;;;1.70;99.90;;;;;;5078633;28;20433;-81
2022/01/07 13:16:28;;;;;;;20.53;7.50;;;1.80;99.90;;;;;;5105277;28;20447;-82
2022/01/07 13:19:14;;;;;;;8.70;6.27;;;1.90;99.90;;;;;;5095382;28;20396;-82
2022/01/07 13:21:59;;;;;;;10.40;6.17;;;1.60;99.90;;;;;;5067692;28;20427;-80
2022/01/07 13:24:46;;;;;;;13.83;8.93;;;1.60;99.90;;;;;;5080702;28;20529;-81
2022/01/07 13:27:31;;;;;;;5.43;4.87;;;1.90;99.90;;;;;;5080529;28;20394;-80
2022/01/07 13:30:15;;;;;;;5.17;4.77;;;1.90;99.90;;;;;;5081115;28;20463;-82
2022/01/07 13:33:15;;;;;;;10.83;6.63;;;1.90;99.90;;;;;;5080354;28;20447;-82
2022/01/07 13:36:05;;;;;;;12.77;8.23;;;1.80;99.90;;;;;;5065375;28;20371;-81
2022/01/07 13:38:58;;;;;;;12.23;7.70;;;1.90;99.90;;;;;;5079749;28;20380;-83
2022/01/07 13:42:05;;;;;;;11.77;7.77;;;1.90;99.90;;;;;;5094996;28;20874;-82
2022/01/07 13:44:54;;;;;;;7.83;6.80;;;1.90;99.90;;;;;;5087931;28;20510;-80
2022/01/07 13:47:41;;;;;;;17.67;8.37;;;2.00;99.90;;;;;;5081319;28;20505;-80
2022/01/07 13:50:29;;;;;;;11.50;7.97;;;2.00;99.90;;;;;;5082539;28;20825;-80
2022/01/07 13:53:17;;;;;;;11.40;7.50;;;1.70;99.90;;;;;;5097633;28;20398;-80
2022/01/07 13:56:10;;;;;;;9.00;5.90;;;1.80;99.90;;;;;;5097555;28;20396;-80
2022/01/07 13:58:59;;;;;;;11.57;8.70;;;1.70;99.90;;;;;;5095327;28;20414;-80
2022/01/07 14:02:01;;;;;;;13.40;7.10;;;1.80;99.90;;;;;;5076595;28;20447;-77
2022/01/07 14:04:55;;;;;;;8.50;7.10;;;1.60;99.90;;;;;;5077788;28;20375;-80
2022/01/07 14:07:53;;;;;;;8.47;7.27;;;1.80;99.90;;;;;;5087825;28;20720;-78
2022/01/07 14:10:41;;;;;;;10.07;6.07;;;1.70;99.90;;;;;;5097915;28;20390;-77
2022/01/07 14:13:29;;;;;;;8.50;6.60;;;1.60;99.90;;;;;;5082615;28;21075;-77
2022/01/07 14:16:22;;;;;;;12.60;7.00;;;1.90;99.90;;;;;;5089305;28;20451;-79
2022/01/07 14:19:07;;;;;;;14.23;6.70;;;1.90;99.90;;;;;;5089591;28;20722;-79
2022/01/07 14:21:53;;;;;;;13.20;7.00;;;2.00;99.90;;;;;;5070528;28;20851;-79
2022/01/07 14:24:38;;;;;;;8.63;7.10;;;1.90;99.90;;;;;;5077238;28;20367;-79
2022/01/07 14:27:28;;;;;;;16.10;11.03;;;1.90;99.90;;;;;;5055336;28;20389;-79
2022/01/07 14:30:16;;;;;;;13.87;7.00;;;1.70;99.90;;;;;;5077935;28;20393;-80
2022/01/07 14:33:01;;;;;;;11.63;7.37;;;1.80;99.90;;;;;;5077588;28;20376;-79
2022/01/07 14:35:47;;;;;;;10.40;6.30;;;1.80;99.90;;;;;;5078261;28;20375;-79
2022/01/07 14:38:31;;;;;;;10.50;7.80;;;1.80;99.90;;;;;;5078356;28;20367;-81